Time;durP1;ratioP1;P1;durP2;ratioP2;P2;SDS_P1;SDS_P2;PMS_P1;PMS_P2;Temp;Humidity;BMP_temperature;BMP_pressure;BME280_temperature;BME280_humidity;BME280_pressure;Samples;Min_cycle;Max_cycle;Signal;HPM_P1;HPM_P2
2022/06/12 00:02:17;;;;;;;2.30;2.10;;;17.90;99.90;;;;;;7359989;19;20543;-80
2022/06/12 00:04:43;;;;;;;3.00;2.00;;;17.80;99.90;;;;;;7366282;19;20400;-79
2022/06/12 00:07:09;;;;;;;2.42;2.05;;;17.70;99.90;;;;;;7361386;19;20361;-81
2022/06/12 00:09:34;;;;;;;2.13;1.73;;;17.60;99.90;;;;;;7366244;19;20344;-80
2022/06/12 00:12:00;;;;;;;1.98;1.80;;;17.60;99.90;;;;;;7366741;19;20363;-80
2022/06/12 00:14:26;;;;;;;1.80;1.70;;;17.60;99.90;;;;;;7366693;19;20328;-80
2022/06/12 00:16:52;;;;;;;2.30;1.73;;;17.50;99.90;;;;;;7361674;19;20470;-80
2022/06/12 00:19:18;;;;;;;1.60;1.50;;;17.50;99.90;;;;;;7368839;19;20554;-80
2022/06/12 00:21:44;;;;;;;1.85;1.75;;;17.50;99.90;;;;;;7371490;19;20320;-81
2022/06/12 00:24:12;;;;;;;2.40;1.60;;;17.50;99.90;;;;;;7376453;19;20349;-80
2022/06/12 00:26:42;;;;;;;1.90;1.80;;;17.40;99.90;;;;;;7362705;19;21197;-80
2022/06/12 00:29:14;;;;;;;1.70;1.60;;;17.40;99.90;;;;;;7364093;19;20360;-80
2022/06/12 00:31:45;;;;;;;1.70;1.60;;;17.30;99.90;;;;;;7358972;19;20348;-79
2022/06/12 00:34:11;;;;;;;1.90;1.80;;;17.30;99.90;;;;;;7364327;19;20396;-80
2022/06/12 00:36:36;;;;;;;3.38;2.00;;;17.20;99.90;;;;;;7356053;19;20438;-81
2022/06/12 00:39:03;;;;;;;2.17;1.90;;;17.20;99.90;;;;;;7370549;19;20397;-80
2022/06/12 00:41:29;;;;;;;2.58;2.38;;;17.10;99.90;;;;;;7368798;19;20336;-80
2022/06/12 00:43:55;;;;;;;1.70;1.60;;;17.00;99.90;;;;;;7368474;19;20348;-79
2022/06/12 00:46:45;;;;;;;2.03;1.83;;;17.00;99.90;;;;;;7362366;19;20325;-80
2022/06/12 00:49:19;;;;;;;2.08;1.88;;;16.90;99.90;;;;;;7369608;19;20667;-79
2022/06/12 00:51:45;;;;;;;2.90;2.00;;;16.90;99.90;;;;;;7367570;19;20342;-79
2022/06/12 00:54:11;;;;;;;2.60;2.00;;;16.90;99.90;;;;;;7368448;19;20321;-79
2022/06/12 00:56:39;;;;;;;2.03;1.83;;;16.80;99.90;;;;;;7364771;19;20966;-82
2022/06/12 00:59:08;;;;;;;2.70;1.90;;;16.80;99.90;;;;;;7370267;19;20336;-81
2022/06/12 01:01:40;;;;;;;2.20;2.00;;;16.80;99.90;;;;;;7357578;19;20389;-79
2022/06/12 01:06:56;;;;;;;3.50;1.90;;;16.70;99.90;;;;;;7266928;19;2004812;-84
2022/06/12 01:09:28;;;;;;;2.55;2.25;;;16.60;99.90;;;;;;7377347;19;20361;-80
2022/06/12 01:11:54;;;;;;;5.10;2.20;;;16.50;99.90;;;;;;7370568;19;20356;-81
2022/06/12 01:14:22;;;;;;;1.70;1.60;;;16.40;99.90;;;;;;7376241;19;20390;-83
2022/06/12 01:16:48;;;;;;;2.05;1.85;;;16.40;99.90;;;;;;7369455;19;20623;-83
2022/06/12 01:19:35;;;;;;;1.88;1.77;;;16.40;99.90;;;;;;7371346;19;20703;-82
2022/06/12 01:22:06;;;;;;;2.50;2.30;;;16.50;99.90;;;;;;7267025;19;2004340;-80
2022/06/12 01:24:37;;;;;;;2.13;2.03;;;16.40;99.90;;;;;;7372125;19;20324;-80
2022/06/12 01:27:21;;;;;;;2.87;1.87;;;16.30;99.90;;;;;;7365890;19;20340;-80
2022/06/12 01:29:56;;;;;;;2.40;2.20;;;16.20;99.90;;;;;;7369797;19;20936;-82
2022/06/12 01:32:34;;;;;;;2.35;2.00;;;16.20;99.90;;;;;;7266330;19;2004599;-84
2022/06/12 01:35:05;;;;;;;2.80;2.40;;;16.20;99.90;;;;;;7368449;19;20337;-80
2022/06/12 01:37:41;;;;;;;2.30;2.10;;;16.20;99.90;;;;;;7365307;19;20991;-80
2022/06/12 01:40:36;;;;;;;2.40;2.13;;;16.10;99.90;;;;;;7374279;19;20412;-79
2022/06/12 01:43:09;;;;;;;1.90;1.80;;;16.00;99.90;;;;;;7269402;19;2004451;-79
2022/06/12 01:45:45;;;;;;;2.53;1.90;;;16.00;99.90;;;;;;7370300;19;20622;-81
2022/06/12 01:48:19;;;;;;;2.60;2.40;;;16.00;99.90;;;;;;7372802;19;20463;-81
2022/06/12 01:51:03;;;;;;;2.40;2.20;;;16.00;99.90;;;;;;7372838;19;20915;-79
2022/06/12 01:53:39;;;;;;;3.60;1.92;;;15.90;99.90;;;;;;7273836;19;2004437;-81
2022/06/12 01:56:18;;;;;;;2.55;2.35;;;15.80;99.90;;;;;;7374598;19;20351;-78
2022/06/12 01:58:58;;;;;;;2.10;2.00;;;15.90;99.90;;;;;;7373908;19;20765;-80
2022/06/12 02:01:25;;;;;;;2.47;2.33;;;15.90;99.90;;;;;;7267065;19;2005058;-80
2022/06/12 02:04:02;;;;;;;1.90;1.80;;;15.90;99.90;;;;;;7377490;19;20323;-77
2022/06/12 02:06:45;;;;;;;2.47;2.28;;;15.80;99.90;;;;;;7271955;19;2004824;-78
2022/06/12 02:09:21;;;;;;;2.17;2.03;;;15.80;99.90;;;;;;7372570;19;23421;-77
2022/06/12 02:15:04;;;;;;;2.80;2.20;;;15.60;99.90;;;;;;7163083;19;2004495;-78
2022/06/12 02:17:44;;;;;;;2.65;2.45;;;15.50;99.90;;;;;;7366240;19;20471;-76
2022/06/12 02:20:10;;;;;;;2.57;2.37;;;15.50;99.90;;;;;;7372033;19;20780;-77
2022/06/12 02:22:38;;;;;;;2.83;2.53;;;15.40;99.90;;;;;;7374020;19;20312;-80
2022/06/12 02:25:15;;;;;;;2.42;2.22;;;15.40;99.90;;;;;;7373314;19;20316;-78
2022/06/12 02:27:45;;;;;;;2.50;2.30;;;15.30;99.90;;;;;;7373748;19;20414;-77
2022/06/12 02:30:24;;;;;;;2.50;2.30;;;15.30;99.90;;;;;;7367068;19;20776;-79
2022/06/12 02:32:56;;;;;;;2.58;2.38;;;15.30;99.90;;;;;;7378158;19;20962;-79
2022/06/12 02:35:29;;;;;;;2.70;2.50;;;15.30;99.90;;;;;;7280072;19;2004207;-79
2022/06/12 02:37:58;;;;;;;2.88;2.60;;;15.30;99.90;;;;;;7356828;19;20384;-78
2022/06/12 02:40:27;;;;;;;2.92;2.67;;;15.20;99.90;;;;;;7367990;19;20312;-78
2022/06/12 02:42:53;;;;;;;3.90;2.70;;;15.20;99.90;;;;;;7374793;19;20337;-77
2022/06/12 02:45:35;;;;;;;2.00;1.90;;;15.10;99.90;;;;;;7373824;19;20368;-77
2022/06/12 02:48:05;;;;;;;2.80;2.60;;;15.10;99.90;;;;;;7273967;19;2004332;-79
2022/06/12 02:50:34;;;;;;;3.15;2.80;;;15.20;99.90;;;;;;7375416;19;20340;-78
2022/06/12 02:53:16;;;;;;;3.00;2.67;;;15.10;99.90;;;;;;7370445;19;20377;-77
2022/06/12 02:55:54;;;;;;;3.13;2.78;;;15.10;99.90;;;;;;7372763;19;21004;-77
2022/06/12 02:58:45;;;;;;;2.55;2.35;;;15.00;99.90;;;;;;7370418;19;20317;-76
2022/06/12 03:01:13;;;;;;;2.47;2.27;;;15.00;99.90;;;;;;7269992;19;2004369;-79
2022/06/12 03:03:49;;;;;;;2.83;2.53;;;15.00;99.90;;;;;;7377107;19;20328;-79
2022/06/12 03:06:14;;;;;;;2.40;2.22;;;15.00;99.90;;;;;;7383344;19;20330;-77
2022/06/12 03:08:42;;;;;;;2.70;2.50;;;15.00;99.90;;;;;;7366746;19;20406;-80
2022/06/12 03:11:18;;;;;;;2.90;2.70;;;14.90;99.90;;;;;;7367931;19;20345;-79
2022/06/12 03:13:44;;;;;;;3.30;2.30;;;14.90;99.90;;;;;;7374609;19;20874;-80
2022/06/12 03:16:14;;;;;;;2.10;1.90;;;14.90;99.90;;;;;;7369872;19;20751;-82
2022/06/12 03:18:43;;;;;;;2.88;2.67;;;15.00;99.90;;;;;;7371571;19;20682;-82
2022/06/12 03:21:36;;;;;;;3.40;2.90;;;15.00;99.90;;;;;;7365133;19;20368;-78
2022/06/12 03:24:06;;;;;;;3.17;2.88;;;15.00;99.90;;;;;;7271963;19;2004647;-79
2022/06/12 03:26:39;;;;;;;2.20;2.10;;;15.10;99.90;;;;;;7366646;19;20345;-80
2022/06/12 03:29:17;;;;;;;2.72;2.53;;;15.20;99.90;;;;;;7369767;19;20345;-79
2022/06/12 03:32:00;;;;;;;2.75;2.55;;;15.20;99.90;;;;;;7364449;19;20320;-78
2022/06/12 03:34:57;;;;;;;4.17;2.63;;;15.20;99.90;;;;;;7279590;19;2004800;-80
2022/06/12 03:37:55;;;;;;;2.90;2.70;;;15.20;99.90;;;;;;7242069;19;2004243;-81
2022/06/12 03:40:24;;;;;;;2.80;2.60;;;15.30;99.90;;;;;;7366048;19;20379;-78
2022/06/12 03:43:02;;;;;;;3.00;2.70;;;15.30;99.90;;;;;;7372548;19;21738;-80
2022/06/12 03:45:48;;;;;;;6.20;3.20;;;15.40;99.90;;;;;;7268084;19;2008001;-78
2022/06/12 03:48:24;;;;;;;3.05;2.85;;;15.40;99.90;;;;;;7370978;19;20297;-79
2022/06/12 03:51:18;;;;;;;3.20;3.00;;;15.20;99.90;;;;;;7367147;19;20321;-77
2022/06/12 03:54:10;;;;;;;3.47;3.10;;;15.20;99.90;;;;;;7271677;19;2004452;-81
2022/06/12 03:59:46;;;;;;;3.28;3.08;;;15.50;99.90;;;;;;7270997;19;2004684;-81
2022/06/12 04:02:13;;;;;;;3.15;2.95;;;15.50;99.90;;;;;;7370498;19;20777;-81
2022/06/12 04:04:40;;;;;;;3.45;3.20;;;15.60;99.90;;;;;;7383764;19;20321;-84
2022/06/12 04:07:06;;;;;;;3.78;3.47;;;15.60;99.90;;;;;;7388555;19;20341;-87
2022/06/12 04:09:34;;;;;;;3.60;3.30;;;15.50;99.90;;;;;;7388925;19;20317;-86
2022/06/12 04:12:02;;;;;;;3.88;3.55;;;15.50;99.90;;;;;;7389672;19;20304;-85
2022/06/12 04:14:34;;;;;;;3.15;2.95;;;15.60;99.90;;;;;;7392096;19;20688;-86
2022/06/12 04:17:00;;;;;;;3.10;2.83;;;15.90;99.90;;;;;;7381660;19;20341;-89
2022/06/12 04:19:26;;;;;;;2.95;2.72;;;16.00;99.90;;;;;;7377535;19;20698;-82
2022/06/12 04:21:59;;;;;;;2.70;2.50;;;16.20;99.90;;;;;;7371902;19;20699;-80
2022/06/12 04:24:31;;;;;;;2.88;2.67;;;16.40;99.90;;;;;;7372415;19;20760;-84
2022/06/12 04:26:59;;;;;;;2.50;2.30;;;16.50;99.90;;;;;;7372640;19;20349;-85
2022/06/12 04:29:33;;;;;;;3.20;3.00;;;16.70;99.90;;;;;;7376300;19;20950;-82
2022/06/12 04:32:00;;;;;;;2.90;2.70;;;16.90;99.90;;;;;;7374050;19;20321;-87
2022/06/12 04:34:29;;;;;;;3.00;2.80;;;17.00;99.90;;;;;;7376430;19;20319;-83
2022/06/12 04:37:00;;;;;;;2.80;2.60;;;17.20;99.90;;;;;;7368480;19;20376;-86
2022/06/12 04:39:28;;;;;;;3.30;3.00;;;17.40;99.90;;;;;;7354078;19;21393;-84
2022/06/12 04:41:54;;;;;;;2.90;2.70;;;17.50;99.90;;;;;;7374382;19;20315;-85
2022/06/12 04:44:20;;;;;;;3.30;3.00;;;17.70;99.90;;;;;;7372128;19;20304;-85
2022/06/12 04:46:47;;;;;;;2.60;2.40;;;17.80;99.90;;;;;;7369620;19;20313;-84
2022/06/12 04:49:15;;;;;;;3.20;2.90;;;18.00;99.90;;;;;;7375904;19;20333;-81
2022/06/12 04:51:41;;;;;;;2.95;2.75;;;18.20;99.90;;;;;;7374611;19;20319;-84
2022/06/12 04:54:06;;;;;;;3.10;2.80;;;18.40;99.90;;;;;;7376690;19;20308;-84
2022/06/12 04:56:34;;;;;;;3.10;2.80;;;18.60;99.90;;;;;;7374579;19;20324;-87
2022/06/12 04:59:00;;;;;;;3.73;3.07;;;18.80;99.90;;;;;;7381996;19;20352;-83
2022/06/12 05:01:27;;;;;;;2.88;2.67;;;19.00;99.90;;;;;;7381289;19;20312;-89
2022/06/12 05:03:53;;;;;;;3.30;3.00;;;19.10;99.90;;;;;;7382129;19;20320;-85
2022/06/12 05:06:19;;;;;;;3.20;2.90;;;19.20;99.90;;;;;;7375253;19;20420;-89
2022/06/12 05:08:46;;;;;;;2.60;2.40;;;19.30;99.90;;;;;;7377195;19;20399;-83
2022/06/12 05:11:16;;;;;;;2.67;2.47;;;19.50;99.90;;;;;;7375393;19;22045;-85
2022/06/12 05:13:42;;;;;;;2.90;2.70;;;19.60;99.90;;;;;;7378835;19;20324;-90
2022/06/12 05:16:08;;;;;;;2.90;2.70;;;19.70;99.90;;;;;;7387767;19;20362;-84
2022/06/12 05:18:34;;;;;;;3.15;2.70;;;19.90;99.90;;;;;;7402959;19;20336;-84
2022/06/12 05:21:00;;;;;;;2.70;2.50;;;20.00;99.90;;;;;;7402594;19;20305;-87
2022/06/12 05:23:25;;;;;;;2.93;2.73;;;20.10;99.90;;;;;;7387086;19;20360;-82
2022/06/12 05:25:51;;;;;;;2.05;1.95;;;20.30;99.90;;;;;;7384770;19;20353;-89
2022/06/12 05:28:17;;;;;;;2.57;2.37;;;20.50;99.90;;;;;;7387112;19;21590;-84
2022/06/12 05:30:43;;;;;;;2.60;2.40;;;20.80;99.90;;;;;;7384199;19;20328;-84
2022/06/12 05:33:08;;;;;;;2.70;2.50;;;20.90;99.90;;;;;;7381029;19;20349;-84
2022/06/12 05:35:36;;;;;;;2.60;2.40;;;20.90;99.90;;;;;;7385717;19;20340;-85
2022/06/12 05:38:02;;;;;;;2.90;2.70;;;20.90;99.90;;;;;;7405917;19;20367;-87
2022/06/12 05:40:30;;;;;;;2.95;2.65;;;20.80;99.90;;;;;;7406130;19;20348;-88
2022/06/12 05:42:55;;;;;;;2.45;2.30;;;20.80;99.90;;;;;;7395800;19;20343;-91
2022/06/12 05:45:23;;;;;;;2.70;2.50;;;20.80;99.90;;;;;;7393567;19;20328;-82
2022/06/12 05:47:51;;;;;;;2.45;2.28;;;20.90;99.90;;;;;;7394096;19;20944;-85
2022/06/12 05:50:17;;;;;;;2.42;2.22;;;21.00;99.90;;;;;;7392308;19;20301;-83
2022/06/12 05:52:43;;;;;;;2.63;2.42;;;21.10;99.90;;;;;;7391891;19;20380;-82
2022/06/12 05:55:09;;;;;;;1.98;1.88;;;21.40;99.90;;;;;;7396373;19;21233;-88
2022/06/12 05:57:35;;;;;;;2.20;2.00;;;21.60;99.90;;;;;;7398865;19;20388;-82
2022/06/12 06:00:00;;;;;;;2.80;2.50;;;21.80;99.90;;;;;;7400941;19;20361;-88
2022/06/12 06:02:26;;;;;;;2.38;2.17;;;21.90;99.90;;;;;;7398387;19;20337;-88
2022/06/12 06:04:51;;;;;;;2.27;2.10;;;21.90;99.90;;;;;;7399809;19;21168;-85
2022/06/12 06:07:17;;;;;;;2.50;2.30;;;22.10;99.90;;;;;;7399816;19;20401;-88
2022/06/12 06:09:43;;;;;;;2.87;2.30;;;22.20;99.90;;;;;;7403230;19;20352;-87
2022/06/12 06:12:09;;;;;;;2.50;2.30;;;22.10;99.90;;;;;;7402855;19;20344;-83
2022/06/12 06:14:35;;;;;;;2.57;1.80;;;22.10;99.90;;;;;;7403443;19;20325;-86
2022/06/12 06:17:00;;;;;;;2.30;2.15;;;22.20;99.90;;;;;;7404103;19;20368;-85
2022/06/12 06:19:26;;;;;;;3.03;2.47;;;22.40;99.90;;;;;;7406162;19;20304;-86
2022/06/12 06:21:51;;;;;;;2.30;2.10;;;22.60;99.90;;;;;;7406927;19;20384;-90
2022/06/12 06:24:17;;;;;;;2.20;2.00;;;22.80;99.90;;;;;;7413991;19;20311;-84
2022/06/12 06:26:43;;;;;;;2.53;2.33;;;23.00;99.90;;;;;;7416656;19;20320;-87
2022/06/12 06:29:09;;;;;;;2.40;2.20;;;23.10;99.90;;;;;;7417106;19;20301;-85
2022/06/12 06:31:35;;;;;;;2.55;2.35;;;23.20;99.90;;;;;;7416481;19;20426;-86
2022/06/12 06:34:01;;;;;;;4.32;2.38;;;23.40;99.90;;;;;;7417233;19;20326;-88
2022/06/12 06:36:29;;;;;;;3.70;2.42;;;23.40;99.90;;;;;;7417928;19;20309;-89
2022/06/12 06:38:56;;;;;;;2.47;2.30;;;23.40;99.90;;;;;;7419193;19;20354;-89
2022/06/12 06:41:23;;;;;;;2.40;2.20;;;23.60;99.90;;;;;;7416460;19;20308;-88
2022/06/12 06:46:33;;;;;;;2.45;2.25;;;24.20;99.90;;;;;;7313720;19;2004181;-90
2022/06/12 06:48:59;;;;;;;2.50;2.30;;;23.90;99.90;;;;;;7417775;19;20360;-87
2022/06/12 06:51:25;;;;;;;2.38;2.00;;;23.90;99.90;;;;;;7416722;19;20353;-89
2022/06/12 06:53:51;;;;;;;2.20;2.03;;;24.00;99.90;;;;;;7416359;19;20293;-88
2022/06/12 06:56:17;;;;;;;2.17;2.08;;;24.30;99.90;;;;;;7416715;19;20373;-89
2022/06/12 06:58:43;;;;;;;3.15;2.30;;;24.60;99.90;;;;;;7416175;19;20304;-88
2022/06/12 07:01:10;;;;;;;3.30;2.50;;;24.90;99.90;;;;;;7414604;19;20316;-86
2022/06/12 07:03:36;;;;;;;2.80;2.10;;;24.50;99.90;;;;;;7414102;19;20348;-89
2022/06/12 07:06:02;;;;;;;4.40;2.07;;;24.50;99.90;;;;;;7416021;19;20313;-88
2022/06/12 07:08:28;;;;;;;2.37;2.17;;;24.80;99.90;;;;;;7415755;19;20301;-90
2022/06/12 07:10:55;;;;;;;2.40;2.20;;;24.80;99.90;;;;;;7418504;19;20339;-88
2022/06/12 07:13:21;;;;;;;2.28;2.08;;;24.90;99.90;;;;;;7396996;19;20304;-91
2022/06/12 07:15:47;;;;;;;2.63;2.42;;;25.10;99.90;;;;;;7414188;19;20311;-89
2022/06/12 07:18:13;;;;;;;2.70;2.22;;;24.60;99.90;;;;;;7417227;19;20352;-88
2022/06/12 07:20:45;;;;;;;2.60;2.40;;;24.60;99.90;;;;;;7414866;19;20325;-90
2022/06/12 07:23:11;;;;;;;2.70;2.50;;;24.50;99.90;;;;;;7417222;19;20393;-90
2022/06/12 07:25:39;;;;;;;2.50;2.30;;;24.40;99.90;;;;;;7416889;19;20364;-91
2022/06/12 07:28:05;;;;;;;2.53;2.33;;;24.50;99.90;;;;;;7413262;19;20392;-93
2022/06/12 07:30:30;;;;;;;2.23;2.13;;;24.30;99.90;;;;;;7413424;19;20357;-91
2022/06/12 07:32:56;;;;;;;3.10;2.53;;;24.40;99.90;;;;;;7411391;19;20321;-89
2022/06/12 07:35:22;;;;;;;2.35;1.95;;;24.40;99.90;;;;;;7412568;19;20316;-91
2022/06/12 07:37:48;;;;;;;2.77;2.40;;;24.70;99.90;;;;;;7412673;19;20326;-92
2022/06/12 07:40:22;;;;;;;2.70;2.00;;;24.70;99.90;;;;;;7411658;19;20360;-91
2022/06/12 07:42:47;;;;;;;2.50;2.30;;;24.80;99.90;;;;;;7409902;19;20376;-92
2022/06/12 07:45:13;;;;;;;2.00;1.90;;;24.70;99.90;;;;;;7412735;19;20336;-90
2022/06/12 07:47:39;;;;;;;2.20;2.00;;;24.60;99.90;;;;;;7407119;19;20630;-93
2022/06/12 07:50:05;;;;;;;1.97;1.87;;;24.70;99.90;;;;;;7408949;19;20353;-91
2022/06/12 07:52:31;;;;;;;1.90;1.80;;;24.80;99.90;;;;;;7409371;19;20325;-90
2022/06/12 07:54:57;;;;;;;2.10;1.90;;;24.70;99.90;;;;;;7407735;19;20324;-91
2022/06/12 07:57:23;;;;;;;3.33;1.98;;;24.80;99.90;;;;;;7408813;19;20388;-91
2022/06/12 07:59:49;;;;;;;1.75;1.63;;;24.80;99.90;;;;;;7409010;19;20305;-92
2022/06/12 08:02:14;;;;;;;1.90;1.80;;;24.70;99.90;;;;;;7406295;19;20352;-91
2022/06/12 08:04:40;;;;;;;2.00;1.80;;;24.80;99.90;;;;;;7408452;19;20364;-89
2022/06/12 08:07:05;;;;;;;1.93;1.83;;;24.90;99.90;;;;;;7401717;19;20400;-91
2022/06/12 08:09:31;;;;;;;2.08;1.98;;;24.90;99.90;;;;;;7404299;19;20389;-89
2022/06/12 08:11:57;;;;;;;2.10;1.90;;;25.00;99.90;;;;;;7402213;19;20345;-90
2022/06/12 08:14:23;;;;;;;2.03;1.90;;;25.10;99.90;;;;;;7404939;19;20321;-90
2022/06/12 08:16:48;;;;;;;2.13;2.00;;;25.10;99.90;;;;;;7398601;19;20313;-89
2022/06/12 08:20:24;;;;;;;1.70;1.60;;;25.00;99.90;;;;;;7403691;19;20356;-88
2022/06/12 08:22:06;;;;;;;2.00;1.90;;;25.00;99.90;;;;;;7295165;19;2004198;-84
2022/06/12 08:24:32;;;;;;;1.60;1.50;;;25.10;99.90;;;;;;7402775;19;20377;-90
2022/06/12 08:26:57;;;;;;;1.70;1.60;;;25.10;99.90;;;;;;7405442;19;20321;-90
2022/06/12 08:29:23;;;;;;;1.73;1.63;;;25.20;99.90;;;;;;7411455;19;20352;-89
2022/06/12 08:31:54;;;;;;;1.80;1.70;;;25.30;99.90;;;;;;7407368;19;20401;-91
2022/06/12 08:34:26;;;;;;;1.60;1.50;;;25.60;99.90;;;;;;7388536;19;20369;-86
2022/06/12 08:36:53;;;;;;;1.80;1.70;;;25.90;99.90;;;;;;7407862;19;20751;-89
2022/06/12 08:39:18;;;;;;;1.90;1.80;;;25.80;99.90;;;;;;7410643;19;20315;-89
2022/06/12 08:42:17;;;;;;;6.50;2.47;;;25.40;99.90;;;;;;7408304;19;20529;-89
2022/06/12 08:45:15;;;;;;;1.95;1.85;;;25.50;99.90;;;;;;7305230;19;2004200;-91
2022/06/12 08:48:00;;;;;;;1.70;1.60;;;25.70;99.90;;;;;;7304134;19;2004186;-90
2022/06/12 08:50:45;;;;;;;1.80;1.70;;;26.10;99.90;;;;;;7405729;19;20405;-88
2022/06/12 08:53:28;;;;;;;1.75;1.65;;;26.10;99.90;;;;;;7306234;19;2004244;-85
2022/06/12 08:56:06;;;;;;;1.60;1.50;;;26.50;99.90;;;;;;7400464;19;20355;-83
2022/06/12 08:58:41;;;;;;;1.60;1.50;;;26.90;99.90;;;;;;7280147;19;2004301;-83
2022/06/12 09:01:10;;;;;;;3.00;1.70;;;27.20;99.90;;;;;;7396390;19;20317;-82
2022/06/12 09:03:45;;;;;;;1.73;1.63;;;27.30;99.90;;;;;;7365073;19;20336;-83
2022/06/12 09:06:41;;;;;;;1.73;1.63;;;27.40;99.90;;;;;;7361075;19;20336;-83
2022/06/12 09:10:26;;;;;;;1.70;1.60;;;27.70;99.90;;;;;;7252630;19;2004344;-84
2022/06/12 09:14:22;;;;;;;2.47;1.80;;;28.30;99.90;;;;;;7117369;19;2004252;-82
2022/06/12 09:21:31;;;;;;;2.10;1.90;;;28.60;99.90;;;;;;7287638;19;20328;-81
2022/06/12 09:24:33;;;;;;;1.65;1.55;;;28.90;99.90;;;;;;7102511;19;2004297;-81
2022/06/12 09:27:22;;;;;;;4.27;1.80;;;29.20;99.90;;;;;;7258568;19;2004422;-80
2022/06/12 09:29:58;;;;;;;1.70;1.60;;;29.30;99.90;;;;;;7365137;19;20331;-81
2022/06/12 09:33:01;;;;;;;1.73;1.63;;;29.60;99.90;;;;;;7360958;19;20996;-80
2022/06/12 09:36:04;;;;;;;1.85;1.75;;;29.40;99.70;;;;;;7172822;19;2004671;-80
2022/06/12 09:38:42;;;;;;;1.60;1.50;;;29.70;99.90;;;;;;7257540;19;2004233;-80
2022/06/12 09:41:18;;;;;;;1.70;1.60;;;30.10;99.70;;;;;;7360322;19;20441;-81
2022/06/12 09:43:53;;;;;;;1.67;1.58;;;30.50;98.40;;;;;;7369723;19;20339;-80
2022/06/12 09:46:37;;;;;;;1.87;1.77;;;30.80;99.40;;;;;;7355178;19;20323;-81
2022/06/12 09:49:25;;;;;;;2.45;1.83;;;30.80;96.40;;;;;;7279823;19;2004623;-81
2022/06/12 09:52:01;;;;;;;2.08;1.88;;;30.50;97.00;;;;;;7359126;19;20367;-81
2022/06/12 09:54:49;;;;;;;3.33;1.90;;;30.10;95.00;;;;;;7280730;19;2004224;-81
2022/06/12 09:58:07;;;;;;;1.90;1.80;;;30.10;96.30;;;;;;7267726;19;2004169;-81
2022/06/12 10:00:58;;;;;;;2.17;2.05;;;30.20;97.00;;;;;;7228275;19;2004683;-81
2022/06/12 10:03:48;;;;;;;2.00;1.80;;;30.50;96.80;;;;;;7320468;19;20350;-78
2022/06/12 10:06:23;;;;;;;2.10;1.90;;;30.70;95.10;;;;;;7246733;19;2004209;-78
2022/06/12 10:09:06;;;;;;;3.67;1.93;;;30.10;92.40;;;;;;7360881;19;20332;-79
2022/06/12 10:19:12;;;;;;;1.85;1.58;;;30.90;93.70;;;;;;7414064;19;20355;-79
2022/06/12 10:22:49;;;;;;;2.45;1.85;;;31.70;93.20;;;;;;7289881;19;2004430;-79
2022/06/12 10:40:54;;;;;;;1.70;1.60;;;32.10;79.90;;;;;;7422491;19;20484;-80
2022/06/12 11:16:00;;;;;;;2.40;1.80;;;31.80;81.50;;;;;;7425077;19;20341;-79
2022/06/12 11:19:40;;;;;;;2.10;1.90;;;31.00;81.10;;;;;;7421842;19;20958;-79
2022/06/12 11:23:01;;;;;;;1.90;1.80;;;30.70;81.80;;;;;;7307275;19;20337;-79
2022/06/12 11:26:13;;;;;;;2.37;1.80;;;30.10;83.40;;;;;;7259972;19;20313;-79
2022/06/12 11:29:15;;;;;;;2.53;1.93;;;29.90;86.10;;;;;;7365894;19;20335;-79
2022/06/12 11:32:40;;;;;;;2.10;1.90;;;30.00;86.10;;;;;;7197192;19;2004251;-79
2022/06/12 11:35:38;;;;;;;4.43;1.77;;;30.30;86.70;;;;;;7404315;19;20357;-79
2022/06/12 11:38:49;;;;;;;1.98;1.88;;;30.90;85.10;;;;;;7216785;19;2004541;-77
2022/06/12 11:41:35;;;;;;;1.73;1.63;;;31.30;82.80;;;;;;7253765;19;2004467;-77
2022/06/12 11:44:04;;;;;;;2.08;1.67;;;31.80;82.80;;;;;;7252071;19;2004482;-77
2022/06/12 11:47:03;;;;;;;1.70;1.60;;;31.80;77.00;;;;;;7352339;19;20399;-77
2022/06/12 11:49:32;;;;;;;1.70;1.60;;;32.10;78.70;;;;;;7357315;19;20870;-77
2022/06/12 11:52:20;;;;;;;1.60;1.50;;;32.30;76.30;;;;;;7358548;19;20345;-77
2022/06/12 11:54:58;;;;;;;1.92;1.40;;;32.70;76.30;;;;;;7255918;19;2004237;-77
2022/06/12 11:57:37;;;;;;;1.50;1.40;;;33.30;69.50;;;;;;7353239;19;20657;-77
2022/06/12 12:00:29;;;;;;;1.77;1.48;;;33.40;68.80;;;;;;7266900;19;2004141;-77
2022/06/12 12:03:11;;;;;;;1.75;1.50;;;33.20;69.00;;;;;;7255830;19;2004601;-77
2022/06/12 12:05:50;;;;;;;1.52;1.38;;;33.50;71.00;;;;;;7250886;19;2004365;-77
2022/06/12 12:08:50;;;;;;;1.27;1.27;;;33.60;66.40;;;;;;7362415;19;20343;-77
2022/06/12 12:11:25;;;;;;;2.20;1.48;;;33.60;65.80;;;;;;7252198;19;2004481;-78
2022/06/12 12:14:03;;;;;;;1.67;1.58;;;33.40;65.20;;;;;;7392687;19;20324;-77
2022/06/12 12:16:42;;;;;;;1.52;1.42;;;33.40;63.90;;;;;;7388463;19;20344;-78
2022/06/12 12:19:18;;;;;;;3.50;1.70;;;33.10;67.80;;;;;;7290367;19;2004431;-77
2022/06/12 12:21:48;;;;;;;1.70;1.60;;;33.00;66.40;;;;;;7385010;19;20364;-77
2022/06/12 12:24:18;;;;;;;1.60;1.50;;;32.40;65.90;;;;;;7379838;19;20363;-77
2022/06/12 12:26:44;;;;;;;1.50;1.40;;;31.70;66.00;;;;;;7384094;19;20320;-77
2022/06/12 12:29:18;;;;;;;2.13;1.80;;;31.80;69.20;;;;;;7390606;19;20785;-77
2022/06/12 12:31:45;;;;;;;3.72;1.67;;;31.40;70.40;;;;;;7374592;19;20370;-77
2022/06/12 12:34:12;;;;;;;1.67;1.58;;;31.90;71.40;;;;;;7385465;19;20332;-77
2022/06/12 12:42:37;;;;;;;1.88;1.73;;;32.90;67.10;;;;;;7281791;19;2004221;-78
2022/06/12 12:45:22;;;;;;;2.28;1.50;;;33.10;69.40;;;;;;7285109;19;2004276;-78
2022/06/12 12:48:09;;;;;;;1.60;1.50;;;33.10;66.70;;;;;;7388047;19;20920;-77
2022/06/12 12:50:53;;;;;;;1.70;1.60;;;33.00;62.80;;;;;;7280484;19;2004644;-78
2022/06/12 12:53:40;;;;;;;1.85;1.58;;;34.00;64.90;;;;;;7386068;19;20324;-77
2022/06/12 12:56:13;;;;;;;1.70;1.60;;;33.70;64.10;;;;;;7284658;19;2004294;-78
2022/06/12 12:58:58;;;;;;;2.70;1.60;;;33.90;66.30;;;;;;7388023;19;20316;-78
2022/06/12 13:01:26;;;;;;;3.85;1.70;;;34.10;61.10;;;;;;7385185;19;20347;-77
2022/06/12 13:03:56;;;;;;;1.70;1.60;;;32.90;61.60;;;;;;7377205;19;20312;-78
2022/06/12 13:06:46;;;;;;;3.28;1.70;;;32.70;63.30;;;;;;7385760;19;20297;-77
2022/06/12 13:09:35;;;;;;;3.17;1.50;;;31.80;59.50;;;;;;7278129;19;2004388;-77
2022/06/12 13:12:15;;;;;;;2.97;1.70;;;33.10;62.50;;;;;;7278780;19;2004357;-78
2022/06/12 13:15:20;;;;;;;1.77;1.27;;;33.40;64.20;;;;;;7384343;19;20364;-77
2022/06/12 13:17:53;;;;;;;1.63;1.52;;;33.80;59.60;;;;;;7255258;19;2004114;-77
2022/06/12 13:20:22;;;;;;;1.67;1.58;;;34.30;61.90;;;;;;7384479;19;20622;-77
2022/06/12 13:23:11;;;;;;;1.85;1.75;;;34.80;60.00;;;;;;7381340;19;20329;-77
2022/06/12 13:25:42;;;;;;;2.20;1.60;;;34.30;58.10;;;;;;7250454;19;2004370;-79
2022/06/12 13:28:27;;;;;;;1.50;1.40;;;33.80;57.80;;;;;;7350390;19;20366;-78
2022/06/12 13:30:57;;;;;;;1.48;1.38;;;34.20;58.00;;;;;;7349599;19;20398;-78
2022/06/12 13:33:27;;;;;;;1.55;1.45;;;34.30;57.00;;;;;;7352077;19;20312;-78
2022/06/12 13:35:56;;;;;;;2.08;1.67;;;34.40;56.40;;;;;;7357480;19;20348;-78
2022/06/12 13:38:26;;;;;;;1.30;1.30;;;34.30;55.10;;;;;;7352383;19;20336;-79
2022/06/12 13:41:01;;;;;;;1.50;1.40;;;34.50;57.00;;;;;;7355191;19;20313;-78
2022/06/12 13:43:42;;;;;;;1.40;1.30;;;32.50;53.50;;;;;;7353777;19;20382;-78
2022/06/12 13:46:26;;;;;;;3.10;1.70;;;33.30;57.60;;;;;;7251702;19;2004398;-78
2022/06/12 13:48:53;;;;;;;2.20;2.00;;;34.10;59.00;;;;;;7357206;19;20317;-78
2022/06/12 13:51:35;;;;;;;1.40;1.30;;;34.50;57.20;;;;;;7351616;19;20910;-78
2022/06/12 13:54:36;;;;;;;1.40;1.30;;;34.80;56.30;;;;;;7249333;19;2004373;-78
2022/06/12 13:57:32;;;;;;;1.50;1.40;;;34.60;55.60;;;;;;7251129;19;2004556;-78
2022/06/12 13:59:59;;;;;;;1.42;1.20;;;34.10;56.40;;;;;;7362021;19;20804;-79
2022/06/12 14:02:28;;;;;;;1.55;1.45;;;34.20;57.40;;;;;;7346852;19;20812;-78
2022/06/12 14:05:19;;;;;;;1.80;1.47;;;34.10;57.00;;;;;;7354963;19;20879;-78
2022/06/12 14:07:46;;;;;;;1.40;1.30;;;34.00;56.70;;;;;;7254029;19;2004767;-78
2022/06/12 14:10:34;;;;;;;1.40;1.30;;;33.70;55.80;;;;;;7351549;19;20511;-78
2022/06/12 14:13:07;;;;;;;1.55;1.20;;;33.90;55.90;;;;;;7249268;19;2004492;-78
2022/06/12 14:15:38;;;;;;;1.73;1.58;;;33.80;53.80;;;;;;7351130;19;20321;-78
2022/06/12 14:18:06;;;;;;;2.58;1.30;;;33.80;55.30;;;;;;7358812;19;20329;-78
2022/06/12 14:20:33;;;;;;;2.85;1.50;;;33.70;56.40;;;;;;7350864;19;20796;-78
2022/06/12 14:23:01;;;;;;;1.20;1.20;;;33.90;55.80;;;;;;7349987;19;20758;-78
2022/06/12 14:25:33;;;;;;;1.50;1.40;;;34.40;57.30;;;;;;7347134;19;20337;-78
2022/06/12 14:28:25;;;;;;;1.40;1.30;;;33.90;54.40;;;;;;7359672;19;20990;-78
2022/06/12 14:31:16;;;;;;;1.50;1.40;;;33.80;56.20;;;;;;7250639;19;2004140;-78
2022/06/12 14:33:57;;;;;;;1.85;1.55;;;32.60;56.80;;;;;;7248136;19;2004203;-78
2022/06/12 14:36:27;;;;;;;1.50;1.40;;;32.70;58.30;;;;;;7355930;19;20700;-78
2022/06/12 14:38:54;;;;;;;1.43;1.33;;;32.00;55.60;;;;;;7351141;19;20313;-78
2022/06/12 14:41:24;;;;;;;1.50;1.40;;;32.30;57.40;;;;;;7351755;19;20365;-78